Time,TemperatureF,DewpointF,PressureIn,WindDirection,WindDirectionDegrees,WindSpeedMPH,WindSpeedGustMPH,Humidity,HourlyPrecipIn,Conditions,Clouds,dailyrainin,SoftwareType,DateUTC
2013-01-29 00:01:00,55.0,54.0,-100.00,South,185,10.0,16.0,95,0.00,,,-99.99,,2013-01-29 06:01:00,
2013-01-29 00:11:00,56.0,54.0,-100.00,SSW,200,10.0,15.0,95,0.00,,,-99.99,,2013-01-29 06:11:00,
2013-01-29 00:21:00,56.0,54.0,-100.00,South,190,9.0,13.0,95,0.00,,,-99.99,,2013-01-29 06:21:00,
2013-01-29 00:32:00,56.0,55.0,-100.00,South,190,9.0,15.0,95,0.00,,,-99.99,,2013-01-29 06:32:00,
2013-01-29 00:41:00,56.0,55.0,-100.00,South,190,9.0,15.0,95,0.00,,,-99.99,,2013-01-29 06:41:00,
2013-01-29 00:52:00,57.0,55.0,-100.00,South,185,9.0,12.0,95,0.00,,,-99.99,,2013-01-29 06:52:00,
2013-01-29 01:01:00,57.0,55.0,-100.00,South,185,9.0,12.0,95,0.00,,,-99.99,,2013-01-29 07:01:00,
2013-01-29 01:11:00,57.0,55.0,-100.00,South,190,9.0,12.0,95,0.00,,,-99.99,,2013-01-29 07:11:00,
2013-01-29 01:21:00,57.0,56.0,-100.00,South,185,9.0,12.0,95,0.00,,,-99.99,,2013-01-29 07:21:00,
2013-01-29 01:31:00,57.0,55.0,-100.00,South,185,7.0,12.0,95,0.00,,,-99.99,,2013-01-29 07:31:00,
2013-01-29 01:41:00,57.0,55.0,-100.00,South,185,7.0,12.0,95,0.00,,,-99.99,,2013-01-29 07:41:00,
2013-01-29 01:52:00,58.0,57.0,-100.00,SSW,195,6.0,12.0,95,0.00,,,-99.99,,2013-01-29 07:52:00,
2013-01-29 02:02:00,58.0,57.0,-100.00,SSW,195,6.0,12.0,95,0.00,,,-99.99,,2013-01-29 08:02:00,
2013-01-29 02:11:00,62.0,60.0,-100.00,SW,220,8.0,14.0,95,0.00,,,-99.99,,2013-01-29 08:11:00,
2013-01-29 02:21:00,62.0,61.0,-100.00,SSW,210,9.0,14.0,95,0.00,,,-99.99,,2013-01-29 08:21:00,
2013-01-29 02:31:00,63.0,62.0,-100.00,SSW,205,9.0,20.0,95,0.00,,,-99.99,,2013-01-29 08:31:00,
2013-01-29 02:41:00,63.0,62.0,-100.00,SSW,205,9.0,20.0,95,0.00,,,-99.99,,2013-01-29 08:41:00,
2013-01-29 02:52:00,63.0,61.0,-100.00,SSW,195,11.0,17.0,95,0.00,,,-99.99,,2013-01-29 08:52:00,
2013-01-29 03:01:00,63.0,61.0,-100.00,SSW,195,11.0,17.0,95,0.00,,,-99.99,,2013-01-29 09:01:00,
2013-01-29 03:11:00,63.0,61.0,-100.00,SSW,200,9.0,17.0,95,0.00,,,-99.99,,2013-01-29 09:11:00,
2013-01-29 03:21:00,63.0,62.0,-100.00,SSW,195,11.0,16.0,95,0.00,,,-99.99,,2013-01-29 09:21:00,
2013-01-29 03:31:00,63.0,61.0,-100.00,South,185,10.0,14.0,95,0.00,,,-99.99,,2013-01-29 09:31:00,
2013-01-29 03:42:00,63.0,61.0,-100.00,South,185,10.0,14.0,95,0.00,,,-99.99,,2013-01-29 09:42:00,
2013-01-29 03:51:00,62.0,60.0,-100.00,SW,220,23.0,40.0,95,2.11,,,-99.99,,2013-01-29 09:51:00,
2013-01-29 04:01:00,62.0,60.0,-100.00,SW,220,23.0,40.0,95,2.11,,,-99.99,,2013-01-29 10:01:00,
2013-01-29 04:11:00,62.0,61.0,-100.00,SW,225,18.0,26.0,95,0.14,,,-99.99,,2013-01-29 10:11:00,
2013-01-29 04:21:00,62.0,61.0,-100.00,SW,220,12.0,23.0,95,0.00,,,-99.99,,2013-01-29 10:21:00,
2013-01-29 04:32:00,60.0,59.0,-100.00,SW,215,12.0,21.0,95,0.00,,,-99.99,,2013-01-29 10:32:00,
2013-01-29 04:41:00,60.0,59.0,-100.00,SW,215,12.0,21.0,95,0.00,,,-99.99,,2013-01-29 10:41:00,
2013-01-29 04:51:00,60.0,58.0,-100.00,SW,225,8.0,13.0,95,0.00,,,-99.99,,2013-01-29 10:51:00,
2013-01-29 05:01:00,60.0,58.0,-100.00,SW,225,8.0,13.0,95,0.00,,,-99.99,,2013-01-29 11:01:00,
2013-01-29 05:11:00,60.0,59.0,-100.00,SW,230,9.0,13.0,95,0.00,,,-99.99,,2013-01-29 11:11:00,
2013-01-29 05:21:00,60.0,59.0,-100.00,SW,225,8.0,12.0,95,0.00,,,-99.99,,2013-01-29 11:21:00,
2013-01-29 05:32:00,62.0,60.0,-100.00,SSW,210,8.0,12.0,95,0.00,,,-99.99,,2013-01-29 11:32:00,
2013-01-29 05:42:00,62.0,60.0,-100.00,SSW,210,8.0,12.0,95,0.00,,,-99.99,,2013-01-29 11:42:00,
2013-01-29 05:52:00,62.0,61.0,-100.00,SW,225,9.0,14.0,95,0.00,,,-99.99,,2013-01-29 11:52:00,
2013-01-29 06:02:00,62.0,61.0,-100.00,SW,225,9.0,14.0,95,0.00,,,-99.99,,2013-01-29 12:02:00,
2013-01-29 06:12:00,63.0,62.0,-100.00,SW,225,13.0,21.0,95,0.00,,,-99.99,,2013-01-29 12:12:00,
2013-01-29 06:22:00,63.0,61.0,-100.00,SW,235,12.0,19.0,95,0.45,,,-99.99,,2013-01-29 12:22:00,
2013-01-29 06:32:00,59.0,58.0,-100.00,WSW,245,15.0,26.0,95,0.00,,,-99.99,,2013-01-29 12:32:00,
2013-01-29 06:42:00,59.0,58.0,-100.00,WSW,245,15.0,26.0,95,0.00,,,-99.99,,2013-01-29 12:42:00,
2013-01-29 06:52:00,59.0,58.0,-100.00,SW,230,12.0,20.0,95,0.00,,,-99.99,,2013-01-29 12:52:00,
2013-01-29 07:02:00,59.0,58.0,-100.00,SW,230,12.0,20.0,95,0.00,,,-99.99,,2013-01-29 13:02:00,
2013-01-29 07:11:00,59.0,58.0,-100.00,West,260,7.0,13.0,95,0.00,,,-99.99,,2013-01-29 13:11:00,
2013-01-29 07:22:00,59.0,58.0,-100.00,West,265,8.0,12.0,95,0.00,,,-99.99,,2013-01-29 13:22:00,
2013-01-29 07:32:00,50.0,49.0,-100.00,NNW,340,6.0,12.0,95,0.00,,,-99.99,,2013-01-29 13:32:00,
2013-01-29 07:42:00,50.0,49.0,-100.00,NNW,340,6.0,12.0,95,0.00,,,-99.99,,2013-01-29 13:42:00,
2013-01-29 07:52:00,49.0,48.0,-100.00,NW,320,6.0,10.0,95,0.00,,,-99.99,,2013-01-29 13:52:00,
2013-01-29 08:02:00,49.0,48.0,-100.00,NW,320,6.0,10.0,95,0.00,,,-99.99,,2013-01-29 14:02:00,
2013-01-29 08:12:00,49.0,47.0,-100.00,NNW,330,6.0,9.0,95,0.00,,,-99.99,,2013-01-29 14:12:00,
2013-01-29 08:21:00,49.0,47.0,-100.00,North,10,4.0,9.0,95,0.00,,,-99.99,,2013-01-29 14:21:00,
2013-01-29 08:33:00,47.0,46.0,-100.00,NW,325,9.0,15.0,95,0.00,,,-99.99,,2013-01-29 14:33:00,
2013-01-29 08:43:00,47.0,46.0,-100.00,NW,325,9.0,15.0,95,0.00,,,-99.99,,2013-01-29 14:43:00,
2013-01-29 08:52:00,46.0,45.0,-100.00,North,350,6.0,14.0,95,0.00,,,-99.99,,2013-01-29 14:52:00,
2013-01-29 09:02:00,46.0,45.0,-100.00,North,350,6.0,14.0,95,0.00,,,-99.99,,2013-01-29 15:02:00,
2013-01-29 09:12:00,45.0,43.0,-100.00,NW,325,10.0,14.0,95,0.00,,,-99.99,,2013-01-29 15:12:00,
2013-01-29 09:22:00,44.0,43.0,-100.00,NNW,330,11.0,17.0,95,0.00,,,-99.99,,2013-01-29 15:22:00,
2013-01-29 09:33:00,43.0,42.0,-100.00,NW,325,11.0,16.0,95,0.00,,,-99.99,,2013-01-29 15:33:00,
2013-01-29 09:42:00,43.0,42.0,-100.00,NW,325,11.0,16.0,95,0.00,,,-99.99,,2013-01-29 15:42:00,
2013-01-29 09:52:00,43.0,42.0,-100.00,NNW,335,9.0,14.0,95,0.21,,,-99.99,,2013-01-29 15:52:00,
2013-01-29 10:02:00,43.0,42.0,-100.00,NNW,335,9.0,14.0,95,0.21,,,-99.99,,2013-01-29 16:02:00,
2013-01-29 10:12:00,42.0,41.0,-100.00,NW,325,6.0,12.0,95,0.00,,,-99.99,,2013-01-29 16:12:00,
2013-01-29 10:22:00,42.0,41.0,-100.00,NNW,335,7.0,10.0,95,0.00,,,-99.99,,2013-01-29 16:22:00,
2013-01-29 10:32:00,41.0,40.0,-100.00,NNW,345,6.0,10.0,95,0.06,,,-99.99,,2013-01-29 16:32:00,
2013-01-29 10:42:00,41.0,40.0,-100.00,NNW,345,6.0,10.0,95,0.06,,,-99.99,,2013-01-29 16:42:00,
2013-01-29 10:52:00,41.0,40.0,-100.00,West,265,6.0,8.0,95,0.23,,,-99.99,,2013-01-29 16:52:00,
2013-01-29 11:03:00,41.0,40.0,-100.00,West,265,6.0,8.0,95,0.23,,,-99.99,,2013-01-29 17:03:00,
2013-01-29 11:12:00,41.0,39.0,-100.00,NW,325,6.0,11.0,95,0.08,,,-99.99,,2013-01-29 17:12:00,
2013-01-29 11:22:00,41.0,39.0,-100.00,NW,320,7.0,13.0,95,0.14,,,-99.99,,2013-01-29 17:22:00,
2013-01-29 11:32:00,41.0,39.0,-100.00,NW,320,9.0,17.0,95,0.14,,,-99.99,,2013-01-29 17:32:00,
2013-01-29 11:42:00,41.0,39.0,-100.00,NW,320,9.0,17.0,95,0.14,,,-99.99,,2013-01-29 17:42:00,
2013-01-29 11:52:00,40.0,39.0,-100.00,NNW,335,13.0,18.0,95,0.27,,,-99.99,,2013-01-29 17:52:00,
2013-01-29 12:03:00,40.0,39.0,-100.00,NNW,335,13.0,18.0,95,0.27,,,-99.99,,2013-01-29 18:03:00,
2013-01-29 12:12:00,40.0,39.0,-100.00,NNW,340,9.0,14.0,95,0.18,,,-99.99,,2013-01-29 18:12:00,
2013-01-29 12:22:00,40.0,38.0,-100.00,NNW,330,10.0,15.0,95,0.33,,,-99.99,,2013-01-29 18:22:00,
2013-01-29 12:33:00,39.0,38.0,-100.00,NNW,345,9.0,15.0,95,0.23,,,-99.99,,2013-01-29 18:33:00,
2013-01-29 12:42:00,39.0,38.0,-100.00,North,10,8.0,11.0,95,0.31,,,-99.99,,2013-01-29 18:42:00,
2013-01-29 12:51:00,39.0,38.0,-100.00,NE,35,2.0,9.0,95,0.14,,,-99.99,,2013-01-29 18:51:00,
2013-01-29 13:02:00,39.0,38.0,-100.00,NE,35,2.0,9.0,95,0.14,,,-99.99,,2013-01-29 19:02:00,
2013-01-29 13:12:00,38.0,37.0,-100.00,NE,40,6.0,8.0,95,0.13,,,-99.99,,2013-01-29 19:12:00,
2013-01-29 13:22:00,38.0,37.0,-100.00,NE,45,6.0,9.0,95,0.00,,,-99.99,,2013-01-29 19:22:00,
2013-01-29 13:32:00,38.0,37.0,-100.00,North,5,6.0,13.0,95,0.00,,,-99.99,,2013-01-29 19:32:00,
2013-01-29 13:42:00,38.0,37.0,-100.00,North,5,6.0,13.0,95,0.00,,,-99.99,,2013-01-29 19:42:00,
2013-01-29 13:52:00,38.0,37.0,-100.00,NNW,335,6.0,12.0,95,0.00,,,-99.99,,2013-01-29 19:52:00,
2013-01-29 14:02:00,38.0,37.0,-100.00,NNW,335,6.0,12.0,95,0.00,,,-99.99,,2013-01-29 20:02:00,
2013-01-29 14:12:00,38.0,37.0,-100.00,North,355,4.0,9.0,95,0.06,,,-99.99,,2013-01-29 20:12:00,
2013-01-29 14:22:00,38.0,37.0,-100.00,North,5,5.0,8.0,95,0.13,,,-99.99,,2013-01-29 20:22:00,
2013-01-29 14:33:00,38.0,37.0,-100.00,NNE,15,8.0,12.0,95,0.06,,,-99.99,,2013-01-29 20:33:00,
2013-01-29 14:42:00,38.0,37.0,-100.00,NNE,15,8.0,12.0,95,0.06,,,-99.99,,2013-01-29 20:42:00,
2013-01-29 14:53:00,37.0,36.0,-100.00,NE,40,5.0,9.0,95,0.11,,,-99.99,,2013-01-29 20:53:00,
2013-01-29 15:03:00,37.0,36.0,-100.00,NE,40,5.0,9.0,95,0.11,,,-99.99,,2013-01-29 21:03:00,
2013-01-29 15:12:00,37.0,36.0,-100.00,NNE,25,7.0,11.0,95,0.14,,,-99.99,,2013-01-29 21:12:00,
2013-01-29 15:22:00,37.0,36.0,-100.00,NNW,335,8.0,11.0,95,0.00,,,-99.99,,2013-01-29 21:22:00,
2013-01-29 15:33:00,37.0,36.0,-100.00,NNE,20,11.0,15.0,95,0.11,,,-99.99,,2013-01-29 21:33:00,
2013-01-29 15:42:00,37.0,36.0,-100.00,NNE,20,11.0,15.0,95,0.11,,,-99.99,,2013-01-29 21:42:00,
2013-01-29 15:52:00,37.0,35.0,-100.00,NNE,30,9.0,16.0,95,0.06,,,-99.99,,2013-01-29 21:52:00,
2013-01-29 16:02:00,37.0,35.0,-100.00,NNE,30,9.0,16.0,95,0.06,,,-99.99,,2013-01-29 22:02:00,
2013-01-29 16:12:00,36.0,35.0,-100.00,NE,35,7.0,15.0,95,0.00,,,-99.99,,2013-01-29 22:12:00,
2013-01-29 16:22:00,36.0,35.0,-100.00,NE,35,7.0,13.0,95,0.00,,,-99.99,,2013-01-29 22:22:00,
2013-01-29 16:33:00,36.0,35.0,-100.00,NNE,25,6.0,11.0,95,0.00,,,-99.99,,2013-01-29 22:33:00,
2013-01-29 16:42:00,36.0,35.0,-100.00,NNW,335,7.0,14.0,95,0.00,,,-99.99,,2013-01-29 22:42:00,
2013-01-29 16:52:00,36.0,35.0,-100.00,NNW,335,7.0,14.0,95,0.00,,,-99.99,,2013-01-29 22:52:00,
2013-01-29 17:02:00,36.0,35.0,-100.00,NNW,335,7.0,14.0,95,0.00,,,-99.99,,2013-01-29 23:02:00,
2013-01-29 17:12:00,36.0,35.0,-100.00,NW,320,7.0,12.0,95,0.11,,,-99.99,,2013-01-29 23:12:00,
2013-01-29 17:22:00,36.0,35.0,-100.00,North,10,7.0,11.0,95,0.17,,,-99.99,,2013-01-29 23:22:00,
2013-01-29 17:32:00,35.0,34.0,-100.00,NNE,25,7.0,12.0,95,0.13,,,-99.99,,2013-01-29 23:32:00,
2013-01-29 17:42:00,35.0,34.0,-100.00,NNE,25,7.0,12.0,95,0.13,,,-99.99,,2013-01-29 23:42:00,
2013-01-29 17:52:00,36.0,34.0,-100.00,North,5,5.0,11.0,95,0.00,,,-99.99,,2013-01-29 23:52:00,
2013-01-29 18:02:00,36.0,34.0,-100.00,North,5,5.0,11.0,95,0.00,,,-99.99,,2013-01-30 00:02:00,
2013-01-29 18:12:00,36.0,34.0,-100.00,NNE,15,8.0,12.0,95,0.00,,,-99.99,,2013-01-30 00:12:00,
2013-01-29 18:22:00,35.0,34.0,-100.00,NNW,340,5.0,12.0,95,0.00,,,-99.99,,2013-01-30 00:22:00,
2013-01-29 18:32:00,35.0,34.0,-100.00,NNW,340,5.0,11.0,95,0.00,,,-99.99,,2013-01-30 00:32:00,
2013-01-29 18:42:00,35.0,34.0,-100.00,NNW,340,5.0,11.0,95,0.00,,,-99.99,,2013-01-30 00:42:00,
2013-01-29 18:52:00,35.0,34.0,-100.00,North,10,4.0,8.0,95,0.28,,,-99.99,,2013-01-30 00:52:00,
2013-01-29 19:02:00,35.0,34.0,-100.00,North,10,4.0,8.0,95,0.28,,,-99.99,,2013-01-30 01:02:00,
2013-01-29 19:11:00,35.0,34.0,-100.00,North,0,6.0,9.0,95,0.13,,,-99.99,,2013-01-30 01:11:00,
2013-01-29 19:22:00,35.0,34.0,-100.00,NNW,340,6.0,9.0,95,0.11,,,-99.99,,2013-01-30 01:22:00,
2013-01-29 19:32:00,35.0,34.0,-100.00,North,10,8.0,14.0,95,0.13,,,-99.99,,2013-01-30 01:32:00,
2013-01-29 19:42:00,35.0,33.0,-100.00,NNE,15,9.0,17.0,95,0.13,,,-99.99,,2013-01-30 01:42:00,
2013-01-29 19:52:00,35.0,33.0,-100.00,NNE,20,10.0,17.0,95,0.17,,,-99.99,,2013-01-30 01:52:00,
2013-01-29 20:02:00,35.0,33.0,-100.00,NNE,20,10.0,17.0,95,0.17,,,-99.99,,2013-01-30 02:02:00,
2013-01-29 20:12:00,34.0,33.0,-100.00,NNE,15,7.0,16.0,95,0.14,,,-99.99,,2013-01-30 02:12:00,
2013-01-29 20:22:00,35.0,33.0,-100.00,NNE,20,7.0,12.0,95,0.16,,,-99.99,,2013-01-30 02:22:00,
2013-01-29 20:33:00,34.0,33.0,-100.00,NNW,335,7.0,14.0,95,0.13,,,-99.99,,2013-01-30 02:33:00,
2013-01-29 20:42:00,35.0,33.0,-100.00,North,5,6.0,10.0,95,0.11,,,-99.99,,2013-01-30 02:42:00,
2013-01-29 20:52:00,34.0,33.0,-100.00,North,10,6.0,9.0,95,0.10,,,-99.99,,2013-01-30 02:52:00,
2013-01-29 21:03:00,34.0,33.0,-100.00,North,10,6.0,9.0,95,0.10,,,-99.99,,2013-01-30 03:03:00,
2013-01-29 21:11:00,34.0,33.0,-100.00,North,5,4.0,9.0,95,0.25,,,-99.99,,2013-01-30 03:11:00,
2013-01-29 21:22:00,34.0,33.0,-100.00,North,350,6.0,9.0,95,0.27,,,-99.99,,2013-01-30 03:22:00,
2013-01-29 21:32:00,34.0,33.0,-100.00,NNW,345,7.0,11.0,95,0.25,,,-99.99,,2013-01-30 03:32:00,
2013-01-29 21:42:00,34.0,33.0,-100.00,NNW,340,7.0,14.0,95,0.37,,,-99.99,,2013-01-30 03:42:00,
2013-01-29 21:51:00,34.0,33.0,-100.00,North,350,8.0,14.0,95,0.25,,,-99.99,,2013-01-30 03:51:00,
2013-01-29 22:02:00,34.0,33.0,-100.00,North,350,8.0,14.0,95,0.25,,,-99.99,,2013-01-30 04:02:00,
2013-01-29 22:11:00,34.0,33.0,-100.00,NW,325,9.0,14.0,95,0.23,,,-99.99,,2013-01-30 04:11:00,
2013-01-29 22:22:00,34.0,33.0,-100.00,North,350,6.0,16.0,95,0.28,,,-99.99,,2013-01-30 04:22:00,
2013-01-29 22:32:00,34.0,33.0,-100.00,NNE,25,9.0,16.0,95,0.17,,,-99.99,,2013-01-30 04:32:00,
2013-01-29 22:41:00,34.0,33.0,-100.00,NNE,25,9.0,16.0,95,0.17,,,-99.99,,2013-01-30 04:41:00,
2013-01-29 22:52:00,34.0,33.0,-100.00,NNE,30,11.0,15.0,95,0.16,,,-99.99,,2013-01-30 04:52:00,
2013-01-29 23:03:00,34.0,33.0,-100.00,NNE,30,11.0,15.0,95,0.16,,,-99.99,,2013-01-30 05:03:00,
2013-01-29 23:12:00,33.0,32.0,-100.00,NNE,20,9.0,16.0,95,0.16,,,-99.99,,2013-01-30 05:12:00,
2013-01-29 23:22:00,33.0,32.0,-100.00,NNE,30,12.0,16.0,95,0.14,,,-99.99,,2013-01-30 05:22:00,
2013-01-29 23:32:00,34.0,32.0,-100.00,NNE,25,8.0,17.0,95,0.16,,,-99.99,,2013-01-30 05:32:00,
2013-01-29 23:42:00,34.0,32.0,-100.00,NNE,25,8.0,17.0,95,0.16,,,-99.99,,2013-01-30 05:42:00,
2013-01-29 23:52:00,34.0,33.0,-100.00,NNE,15,9.0,14.0,95,0.11,,,-99.99,,2013-01-30 05:52:00,